Time;durP1;ratioP1;P1;durP2;ratioP2;P2;SDS_P1;SDS_P2;PMS_P1;PMS_P2;Temp;Humidity;BMP_temperature;BMP_pressure;BME280_temperature;BME280_humidity;BME280_pressure;Samples;Min_cycle;Max_cycle;Signal;HPM_P1;HPM_P2
2023/03/09 00:00:10;;;;;;;2.70;1.13;;;;;7.70;91766.00;;;;7392723;19;20132;-75
2023/03/09 00:02:47;;;;;;;3.17;1.43;;;;;7.70;91780.00;;;;7396974;19;20164;-73
2023/03/09 00:05:29;;;;;;;0.63;0.63;;;;;7.70;91755.00;;;;7397626;19;20140;-74
2023/03/09 00:08:03;;;;;;;1.70;0.90;;;;;7.60;91793.00;;;;7389522;19;20125;-74
2023/03/09 00:10:41;;;;;;;1.70;1.00;;;;;7.50;91783.00;;;;7389661;19;20139;-74
2023/03/09 00:13:14;;;;;;;0.67;0.60;;;;;7.50;91773.00;;;;7396906;19;20600;-75
2023/03/09 00:15:50;;;;;;;0.80;0.60;;;;;7.40;91771.00;;;;7399795;19;20137;-72
2023/03/09 00:18:25;;;;;;;1.27;0.87;;;;;7.30;91775.00;;;;7405353;19;20133;-73
2023/03/09 00:20:58;;;;;;;1.33;0.63;;;;;7.30;91776.00;;;;7405019;19;20148;-72
2023/03/09 00:23:26;;;;;;;1.93;0.63;;;;;7.30;91781.00;;;;7399929;19;20145;-75
2023/03/09 00:26:06;;;;;;;1.97;0.70;;;;;7.30;91795.00;;;;7401230;19;20142;-75
2023/03/09 00:28:42;;;;;;;0.87;0.80;;;;;7.10;91811.00;;;;7401485;19;20625;-74
2023/03/09 00:31:15;;;;;;;2.13;0.87;;;;;7.10;91827.00;;;;7404766;19;20131;-73
2023/03/09 00:33:50;;;;;;;0.50;0.50;;;;;7.10;91837.00;;;;7403123;19;20141;-73
2023/03/09 00:36:24;;;;;;;2.03;0.60;;;;;7.10;91810.00;;;;7405887;19;20125;-73
2023/03/09 00:39:06;;;;;;;0.60;0.60;;;;;7.00;91811.00;;;;7406582;19;20588;-72
2023/03/09 00:41:40;;;;;;;0.97;0.70;;;;;7.00;91838.00;;;;7405333;19;20150;-74
2023/03/09 00:44:14;;;;;;;1.53;0.70;;;;;7.00;91815.00;;;;7404134;19;20142;-74
2023/03/09 00:46:48;;;;;;;0.63;0.40;;;;;7.00;91857.00;;;;7401890;19;20152;-73
2023/03/09 00:49:16;;;;;;;0.50;0.50;;;;;6.90;91828.00;;;;7403704;19;20132;-74
2023/03/09 00:51:50;;;;;;;0.43;0.40;;;;;6.80;91805.00;;;;7403654;19;20463;-72
2023/03/09 00:54:17;;;;;;;5.07;0.40;;;;;6.60;91800.00;;;;7405791;19;20635;-73
2023/03/09 00:56:47;;;;;;;1.00;0.47;;;;;6.60;91817.00;;;;7400194;19;20125;-73
2023/03/09 00:59:20;;;;;;;2.87;0.47;;;;;6.50;91800.00;;;;7392941;19;20147;-74
2023/03/09 01:01:54;;;;;;;0.40;0.40;;;;;6.40;91797.00;;;;7401534;19;20260;-75
2023/03/09 01:04:35;;;;;;;1.80;0.50;;;;;6.40;91805.00;;;;7400348;19;20144;-74
2023/03/09 01:07:09;;;;;;;0.70;0.40;;;;;6.40;91799.00;;;;7401312;19;20133;-74
2023/03/09 01:09:38;;;;;;;1.17;0.60;;;;;6.40;91793.00;;;;7403170;19;20595;-74
2023/03/09 01:12:11;;;;;;;1.17;0.53;;;;;6.40;91794.00;;;;7399050;19;20461;-74
2023/03/09 01:14:47;;;;;;;0.87;0.57;;;;;6.50;91793.00;;;;7404472;19;20139;-75
2023/03/09 01:17:14;;;;;;;0.50;0.50;;;;;6.50;91804.00;;;;7403720;19;20133;-74
2023/03/09 01:19:50;;;;;;;3.40;0.97;;;;;6.50;91787.00;;;;7403573;19;20117;-74
2023/03/09 01:22:18;;;;;;;2.50;0.60;;;;;6.70;91806.00;;;;7402821;19;20144;-74
2023/03/09 01:24:52;;;;;;;4.83;0.83;;;;;6.70;91824.00;;;;7402712;19;20573;-72
2023/03/09 01:27:26;;;;;;;0.97;0.50;;;;;6.70;91830.00;;;;7399381;19;20125;-73
2023/03/09 01:30:00;;;;;;;0.73;0.30;;;;;6.70;91828.00;;;;7402341;19;20141;-73
2023/03/09 01:32:34;;;;;;;1.80;0.53;;;;;6.60;91798.00;;;;7402347;19;20619;-74
2023/03/09 01:35:08;;;;;;;0.33;0.33;;;;;6.60;91797.00;;;;7404335;19;20140;-73
2023/03/09 01:37:42;;;;;;;3.63;0.80;;;;;6.60;91797.00;;;;7402422;19;20131;-73
2023/03/09 01:40:20;;;;;;;0.87;0.60;;;;;6.50;91793.00;;;;7401660;19;20507;-75
2023/03/09 01:43:00;;;;;;;2.17;0.67;;;;;6.50;91810.00;;;;7403391;19;20136;-76
2023/03/09 01:45:33;;;;;;;1.40;0.53;;;;;6.50;91816.00;;;;7402081;19;20164;-73
2023/03/09 01:48:08;;;;;;;1.37;0.60;;;;;6.40;91812.00;;;;7402890;19;20138;-78
2023/03/09 01:50:42;;;;;;;1.67;0.60;;;;;6.30;91807.00;;;;7403284;19;20144;-75
2023/03/09 01:53:16;;;;;;;0.63;0.20;;;;;6.20;91800.00;;;;7402762;19;20129;-77
2023/03/09 01:55:52;;;;;;;2.00;1.30;;;;;6.20;91784.00;;;;7401258;19;20469;-74
2023/03/09 01:58:28;;;;;;;0.40;0.23;;;;;6.20;91790.00;;;;7400114;19;20137;-75
2023/03/09 02:01:02;;;;;;;0.50;0.30;;;;;6.20;91755.00;;;;7400421;19;20166;-74
2023/03/09 02:03:35;;;;;;;1.10;0.33;;;;;6.30;91762.00;;;;7399114;19;20168;-74
2023/03/09 02:06:18;;;;;;;1.93;0.53;;;;;6.30;91760.00;;;;7399717;19;20152;-75
2023/03/09 02:09:05;;;;;;;0.37;0.30;;;;;6.40;91758.00;;;;7396409;19;20132;-75
2023/03/09 02:11:40;;;;;;;1.03;0.20;;;;;6.40;91748.00;;;;7400089;19;20192;-74
2023/03/09 02:14:09;;;;;;;2.23;0.30;;;;;6.40;91719.00;;;;7400179;19;20156;-75
2023/03/09 02:16:36;;;;;;;0.63;0.40;;;;;6.40;91759.00;;;;7401482;19;20136;-73
2023/03/09 02:19:37;;;;;;;0.93;0.50;;;;;6.40;91731.00;;;;7401142;19;20129;-77
2023/03/09 02:22:05;;;;;;;0.97;0.40;;;;;6.40;91742.00;;;;7401634;19;20125;-75
2023/03/09 02:25:01;;;;;;;0.50;0.40;;;;;6.40;91770.00;;;;7401130;19;20116;-75
2023/03/09 02:27:34;;;;;;;0.93;0.30;;;;;6.50;91755.00;;;;7399535;19;20580;-72
2023/03/09 02:30:09;;;;;;;0.93;0.50;;;;;6.50;91752.00;;;;7399630;19;20152;-74
2023/03/09 02:32:37;;;;;;;3.87;0.50;;;;;6.50;91780.00;;;;7400682;19;20138;-74
2023/03/09 02:35:10;;;;;;;0.70;0.40;;;;;6.50;91734.00;;;;7401617;19;20121;-74
2023/03/09 02:37:44;;;;;;;1.33;0.40;;;;;6.60;91778.00;;;;7400697;19;20572;-74
2023/03/09 02:40:25;;;;;;;0.53;0.43;;;;;6.50;91790.00;;;;7397097;19;20145;-74
2023/03/09 02:43:02;;;;;;;0.70;0.40;;;;;6.50;91800.00;;;;7399166;19;20133;-75
2023/03/09 02:45:31;;;;;;;0.53;0.50;;;;;6.40;91809.00;;;;7401042;19;20132;-74
2023/03/09 02:48:05;;;;;;;1.60;0.60;;;;;6.50;91825.00;;;;7398925;19;20147;-72
2023/03/09 02:50:39;;;;;;;0.77;0.30;;;;;6.40;91851.00;;;;7400935;19;20133;-72
2023/03/09 02:53:07;;;;;;;0.23;0.23;;;;;6.30;91874.00;;;;7399468;19;20139;-75
2023/03/09 02:55:41;;;;;;;0.20;0.20;;;;;6.30;91877.00;;;;7398927;19;20128;-75
2023/03/09 02:58:15;;;;;;;2.10;0.60;;;;;6.30;91857.00;;;;7400571;19;20129;-73
2023/03/09 03:00:49;;;;;;;1.37;0.60;;;;;6.40;91870.00;;;;7398643;19;20155;-72
2023/03/09 03:03:23;;;;;;;0.40;0.33;;;;;6.40;91893.00;;;;7398669;19;20158;-72
2023/03/09 03:05:58;;;;;;;0.20;0.07;;;;;6.20;91924.00;;;;7399147;19;20152;-74
2023/03/09 03:08:32;;;;;;;0.60;0.30;;;;;6.10;91939.00;;;;7394960;19;20149;-72
2023/03/09 03:11:03;;;;;;;0.60;0.10;;;;;5.80;91951.00;;;;7398910;19;20625;-72
2023/03/09 03:13:37;;;;;;;1.40;0.30;;;;;5.80;91956.00;;;;7398499;19;20182;-73
2023/03/09 03:16:11;;;;;;;1.93;0.60;;;;;5.60;91966.00;;;;7398396;19;20196;-72
2023/03/09 03:18:39;;;;;;;1.43;0.60;;;;;5.60;91978.00;;;;7398653;19;20129;-73
2023/03/09 03:21:13;;;;;;;1.07;0.40;;;;;5.50;91985.00;;;;7399542;19;20180;-72
2023/03/09 03:23:41;;;;;;;1.20;0.60;;;;;5.50;91966.00;;;;7399177;19;20149;-75
2023/03/09 03:26:14;;;;;;;2.47;0.70;;;;;5.50;91994.00;;;;7396879;19;20164;-74
2023/03/09 03:28:50;;;;;;;3.17;0.90;;;;;5.40;92014.00;;;;7398959;19;20129;-74
2023/03/09 03:31:23;;;;;;;4.23;1.20;;;;;5.40;92009.00;;;;7398002;19;20124;-74
2023/03/09 03:33:57;;;;;;;2.97;1.10;;;;;5.50;92034.00;;;;7397470;19;20147;-75
2023/03/09 03:36:31;;;;;;;7.07;1.60;;;;;5.50;92022.00;;;;7398793;19;20133;-75
2023/03/09 03:38:59;;;;;;;5.07;1.30;;;;;5.50;92037.00;;;;7399367;19;20116;-74
2023/03/09 03:41:32;;;;;;;6.20;1.43;;;;;5.60;92047.00;;;;7397951;19;20196;-74
2023/03/09 03:44:00;;;;;;;4.30;1.47;;;;;5.50;92050.00;;;;7399673;19;20132;-73
2023/03/09 03:46:33;;;;;;;6.93;1.67;;;;;5.50;92059.00;;;;7397542;19;20140;-74
2023/03/09 03:49:07;;;;;;;5.17;1.53;;;;;5.60;92060.00;;;;7397448;19;20133;-72
2023/03/09 03:51:41;;;;;;;4.67;2.10;;;;;5.60;92062.00;;;;7398767;19;20142;-73
2023/03/09 03:54:17;;;;;;;6.30;1.73;;;;;5.60;92064.00;;;;7397688;19;20208;-74
2023/03/09 03:56:53;;;;;;;7.47;1.73;;;;;5.60;92073.00;;;;7396831;19;20137;-73
2023/03/09 03:59:27;;;;;;;10.57;2.53;;;;;5.60;92058.00;;;;7397481;19;20172;-75
2023/03/09 04:02:01;;;;;;;8.20;2.40;;;;;5.60;92052.00;;;;7396421;19;20141;-75
2023/03/09 04:04:49;;;;;;;6.07;2.17;;;;;5.50;92071.00;;;;7396888;19;20623;-73
2023/03/09 04:07:23;;;;;;;7.53;2.30;;;;;5.50;92087.00;;;;7396078;19;20135;-74
2023/03/09 04:09:51;;;;;;;4.87;2.03;;;;;5.60;92063.00;;;;7394848;19;20135;-72
2023/03/09 04:12:25;;;;;;;7.30;2.13;;;;;5.60;92057.00;;;;7396865;19;20156;-75
2023/03/09 04:14:53;;;;;;;8.93;2.80;;;;;5.50;92073.00;;;;7397218;19;20517;-75
2023/03/09 04:17:27;;;;;;;9.77;2.53;;;;;5.60;92067.00;;;;7396781;19;20128;-73
2023/03/09 04:19:55;;;;;;;9.17;2.10;;;;;5.50;92091.00;;;;7397973;19;20125;-74
2023/03/09 04:22:29;;;;;;;9.67;2.73;;;;;5.50;92083.00;;;;7397484;19;20155;-75
2023/03/09 04:24:57;;;;;;;14.23;3.30;;;;;5.60;92083.00;;;;7397141;19;20129;-74
2023/03/09 04:27:31;;;;;;;9.83;2.87;;;;;5.60;92077.00;;;;7394928;19;20207;-74
2023/03/09 04:29:59;;;;;;;14.13;3.10;;;;;5.60;92061.00;;;;7396518;19;20156;-74
2023/03/09 04:32:33;;;;;;;13.30;2.93;;;;;5.50;92101.00;;;;7398193;19;20454;-74
2023/03/09 04:35:09;;;;;;;8.87;2.33;;;;;5.40;92087.00;;;;7397937;19;20140;-75
2023/03/09 04:37:43;;;;;;;8.33;2.27;;;;;5.50;92105.00;;;;7397868;19;20129;-78
2023/03/09 04:40:19;;;;;;;11.47;2.70;;;;;5.50;92109.00;;;;7396959;19;20131;-77
2023/03/09 04:42:54;;;;;;;13.53;2.40;;;;;5.40;92115.00;;;;7397301;19;20133;-78
2023/03/09 04:45:29;;;;;;;8.67;2.33;;;;;5.40;92132.00;;;;7396857;19;20197;-75
2023/03/09 04:47:57;;;;;;;9.80;2.47;;;;;5.40;92131.00;;;;7394456;19;20154;-75
2023/03/09 04:50:31;;;;;;;8.73;2.37;;;;;5.50;92121.00;;;;7396592;19;20139;-75
2023/03/09 04:52:59;;;;;;;9.27;2.80;;;;;5.50;92122.00;;;;7395811;19;20152;-73
2023/03/09 04:55:35;;;;;;;9.40;2.40;;;;;5.40;92116.00;;;;7397141;19;20135;-74
2023/03/09 04:58:03;;;;;;;12.03;3.70;;;;;5.50;92132.00;;;;7396279;19;20611;-74
2023/03/09 05:00:37;;;;;;;11.13;2.60;;;;;5.50;92135.00;;;;7392522;19;20120;-74
2023/03/09 05:03:11;;;;;;;7.50;2.10;;;;;5.60;92152.00;;;;7400325;19;20168;-72
2023/03/09 05:05:52;;;;;;;9.77;2.90;;;;;5.50;92158.00;;;;7401749;19;20172;-75
2023/03/09 05:08:24;;;;;;;12.10;3.23;;;;;5.70;92161.00;;;;7402701;19;20152;-74
2023/03/09 05:10:59;;;;;;;9.20;2.60;;;;;5.70;92143.00;;;;7403677;19;20133;-73
2023/03/09 05:13:33;;;;;;;13.93;2.70;;;;;5.70;92162.00;;;;7398654;19;20167;-74
2023/03/09 05:16:08;;;;;;;8.53;2.27;;;;;5.70;92155.00;;;;7403889;19;20114;-73
2023/03/09 05:18:36;;;;;;;10.30;2.40;;;;;5.70;92153.00;;;;7402427;19;20128;-75
2023/03/09 05:21:10;;;;;;;5.33;3.20;;;;;5.70;92160.00;;;;7404203;19;20132;-74
2023/03/09 05:23:45;;;;;;;14.83;2.77;;;;;5.80;92181.00;;;;7402716;19;20531;-74
2023/03/09 05:26:19;;;;;;;6.97;2.13;;;;;5.70;92188.00;;;;7402363;19;20145;-76
2023/03/09 05:28:54;;;;;;;8.97;2.47;;;;;5.80;92181.00;;;;7402188;19;20128;-76
2023/03/09 05:31:28;;;;;;;11.43;2.30;;;;;5.80;92180.00;;;;7402292;19;20136;-73
2023/03/09 05:33:55;;;;;;;10.30;2.40;;;;;5.80;92180.00;;;;7401703;19;20136;-75
2023/03/09 05:36:31;;;;;;;13.97;2.53;;;;;5.70;92199.00;;;;7402859;19;20130;-75
2023/03/09 05:39:05;;;;;;;5.93;2.00;;;;;5.70;92194.00;;;;7402096;19;20132;-73
2023/03/09 05:41:32;;;;;;;13.13;2.73;;;;;5.80;92204.00;;;;7401281;19;20153;-78
2023/03/09 05:44:07;;;;;;;10.53;2.30;;;;;5.60;92212.00;;;;7403086;19;20132;-74
2023/03/09 05:46:35;;;;;;;8.03;2.17;;;;;5.70;92203.00;;;;7401388;19;20136;-76
2023/03/09 05:49:12;;;;;;;12.83;2.00;;;;;5.70;92204.00;;;;7403117;19;20483;-76
2023/03/09 05:51:40;;;;;;;12.90;2.23;;;;;5.60;92225.00;;;;7401812;19;20158;-77
2023/03/09 05:54:08;;;;;;;10.37;2.03;;;;;5.70;92237.00;;;;7403118;19;20466;-76
2023/03/09 05:56:44;;;;;;;7.80;2.10;;;;;5.70;92227.00;;;;7402689;19;20471;-77
2023/03/09 05:59:14;;;;;;;10.73;2.23;;;;;5.80;92218.00;;;;7402358;19;20128;-77
2023/03/09 06:01:47;;;;;;;6.83;2.33;;;;;5.70;92242.00;;;;7400241;19;20145;-73
2023/03/09 06:04:21;;;;;;;13.30;3.10;;;;;5.80;92241.00;;;;7402317;19;20133;-78
2023/03/09 06:07:02;;;;;;;7.57;2.03;;;;;5.90;92251.00;;;;7398917;19;20148;-75
2023/03/09 06:09:29;;;;;;;10.27;1.83;;;;;5.80;92240.00;;;;7397001;19;20575;-76
2023/03/09 06:12:05;;;;;;;8.83;2.07;;;;;6.10;92260.00;;;;7400736;19;20169;-74
2023/03/09 06:14:33;;;;;;;8.07;1.70;;;;;6.20;92248.00;;;;7400288;19;20143;-75
2023/03/09 06:17:07;;;;;;;5.93;1.67;;;;;6.10;92270.00;;;;7401284;19;20120;-72
2023/03/09 06:19:42;;;;;;;8.00;2.30;;;;;6.10;92262.00;;;;7401444;19;20208;-74
2023/03/09 06:22:16;;;;;;;9.67;1.97;;;;;6.30;92275.00;;;;7400879;19;20539;-75
2023/03/09 06:24:43;;;;;;;8.90;2.43;;;;;6.30;92256.00;;;;7401981;19;20133;-75
2023/03/09 06:27:17;;;;;;;3.53;1.57;;;;;6.30;92284.00;;;;7399233;19;20140;-73
2023/03/09 06:29:46;;;;;;;12.87;2.20;;;;;6.50;92271.00;;;;7400282;19;20138;-74
2023/03/09 06:32:21;;;;;;;11.90;2.20;;;;;6.40;92284.00;;;;7399642;19;20147;-75
2023/03/09 06:34:48;;;;;;;7.10;1.97;;;;;6.60;92275.00;;;;7401991;19;20129;-75
2023/03/09 06:37:22;;;;;;;6.23;1.90;;;;;6.50;92298.00;;;;7400123;19;20144;-77
2023/03/09 06:39:50;;;;;;;9.03;2.73;;;;;6.20;92315.00;;;;7400941;19;20660;-76
2023/03/09 06:42:24;;;;;;;8.20;2.00;;;;;6.20;92310.00;;;;7399374;19;20145;-75
2023/03/09 06:44:52;;;;;;;6.60;1.77;;;;;6.00;92316.00;;;;7400289;19;20281;-75
2023/03/09 06:47:28;;;;;;;10.53;2.47;;;;;5.90;92313.00;;;;7399471;19;20133;-74
2023/03/09 06:50:02;;;;;;;7.57;2.20;;;;;5.90;92310.00;;;;7400225;19;20121;-76
2023/03/09 06:52:38;;;;;;;11.57;2.40;;;;;6.00;92308.00;;;;7399507;19;20127;-75
2023/03/09 06:55:06;;;;;;;9.60;1.80;;;;;6.00;92317.00;;;;7401179;19;20571;-73
2023/03/09 06:57:47;;;;;;;5.37;1.97;;;;;6.10;92311.00;;;;7399296;19;20595;-74
2023/03/09 07:00:23;;;;;;;9.00;2.00;;;;;6.30;92301.00;;;;7398886;19;20595;-74
2023/03/09 07:02:58;;;;;;;7.90;1.50;;;;;6.60;92315.00;;;;7397722;19;20164;-74
2023/03/09 07:05:32;;;;;;;10.00;1.87;;;;;6.80;92306.00;;;;7400584;19;20176;-75
2023/03/09 07:08:14;;;;;;;11.40;1.87;;;;;6.80;92316.00;;;;7395214;19;20128;-76
2023/03/09 07:10:49;;;;;;;7.73;2.10;;;;;6.80;92327.00;;;;7399774;19;20133;-76
2023/03/09 07:13:24;;;;;;;8.53;1.63;;;;;6.90;92335.00;;;;7399687;19;20128;-76
2023/03/09 07:16:02;;;;;;;9.50;1.80;;;;;7.00;92323.00;;;;7401182;19;20113;-76
2023/03/09 07:18:36;;;;;;;8.83;1.80;;;;;7.00;92324.00;;;;7399346;19;20604;-74
2023/03/09 07:21:05;;;;;;;7.97;1.27;;;;;7.10;92343.00;;;;7397435;19;20152;-74
2023/03/09 07:23:38;;;;;;;5.70;1.20;;;;;7.50;92357.00;;;;7398258;19;20131;-74
2023/03/09 07:26:07;;;;;;;6.40;1.47;;;;;7.80;92355.00;;;;7398114;19;20473;-74
2023/03/09 07:28:43;;;;;;;9.30;1.50;;;;;7.90;92366.00;;;;7397271;19;20727;-76
2023/03/09 07:31:17;;;;;;;4.93;1.30;;;;;7.40;92362.00;;;;7399072;19;20476;-73
2023/03/09 07:33:48;;;;;;;7.30;1.30;;;;;7.40;92376.00;;;;7398222;19;20200;-76
2023/03/09 07:36:22;;;;;;;3.07;0.97;;;;;7.40;92386.00;;;;7399338;19;20144;-74
2023/03/09 07:38:52;;;;;;;11.20;1.63;;;;;7.40;92399.00;;;;7400099;19;20985;-75
2023/03/09 07:41:30;;;;;;;8.37;1.50;;;;;7.50;92395.00;;;;7397824;19;20159;-78
2023/03/09 07:44:04;;;;;;;4.10;1.70;;;;;7.60;92407.00;;;;7399453;19;20475;-76
2023/03/09 07:46:38;;;;;;;6.80;1.47;;;;;7.80;92408.00;;;;7398653;19;20207;-75
2023/03/09 07:49:19;;;;;;;6.40;1.43;;;;;8.10;92417.00;;;;7396617;19;20140;-74
2023/03/09 07:51:56;;;;;;;2.73;1.27;;;;;8.70;92415.00;;;;7399539;19;20704;-74
2023/03/09 07:54:29;;;;;;;5.57;1.63;;;;;8.70;92429.00;;;;7396223;19;20487;-75
2023/03/09 07:56:57;;;;;;;11.33;1.60;;;;;9.00;92434.00;;;;7396516;19;20174;-74
2023/03/09 07:59:31;;;;;;;8.00;1.73;;;;;8.70;92444.00;;;;7398940;19;20134;-75
2023/03/09 08:01:59;;;;;;;5.63;1.13;;;;;8.60;92446.00;;;;7397101;19;20136;-77
2023/03/09 08:04:33;;;;;;;15.00;1.60;;;;;8.60;92466.00;;;;7399643;19;20112;-76
2023/03/09 08:07:14;;;;;;;5.77;1.67;;;;;8.40;92451.00;;;;7396374;19;20651;-75
2023/03/09 08:09:48;;;;;;;7.03;1.40;;;;;8.60;92463.00;;;;7395849;19;20145;-77
2023/03/09 08:12:22;;;;;;;3.20;1.00;;;;;8.40;92468.00;;;;7393170;19;20155;-74
2023/03/09 08:14:57;;;;;;;3.07;1.20;;;;;8.30;92481.00;;;;7399382;19;20118;-75
2023/03/09 08:17:24;;;;;;;5.50;1.50;;;;;8.10;92482.00;;;;7397692;19;20564;-75
2023/03/09 08:20:01;;;;;;;5.17;1.40;;;;;8.00;92490.00;;;;7398957;19;20131;-78
2023/03/09 08:22:36;;;;;;;3.37;1.60;;;;;7.80;92506.00;;;;7397724;19;20168;-76
2023/03/09 08:25:10;;;;;;;6.07;1.40;;;;;7.50;92505.00;;;;7398463;19;20150;-73
2023/03/09 08:27:46;;;;;;;5.53;1.70;;;;;7.20;92516.00;;;;7399066;19;20130;-74
2023/03/09 08:30:21;;;;;;;3.97;1.20;;;;;7.10;92524.00;;;;7396229;19;20136;-75
2023/03/09 08:32:54;;;;;;;2.70;1.10;;;;;7.00;92528.00;;;;7397378;19;20161;-74
2023/03/09 08:35:32;;;;;;;6.50;1.50;;;;;6.80;92542.00;;;;7397760;19;20125;-72
2023/03/09 08:38:06;;;;;;;4.57;1.20;;;;;6.70;92548.00;;;;7402311;19;20129;-74
2023/03/09 08:40:41;;;;;;;4.13;1.60;;;;;6.60;92571.00;;;;7403320;19;20128;-73
2023/03/09 08:43:11;;;;;;;4.53;1.30;;;;;6.60;92577.00;;;;7405471;19;20121;-75
2023/03/09 08:45:45;;;;;;;4.53;1.33;;;;;6.30;92584.00;;;;7401555;19;20148;-73
2023/03/09 08:48:19;;;;;;;4.77;1.10;;;;;6.30;92591.00;;;;7401926;19;20128;-75
2023/03/09 08:50:53;;;;;;;3.43;1.10;;;;;6.20;92596.00;;;;7404745;19;20124;-74
2023/03/09 08:53:27;;;;;;;5.30;1.00;;;;;6.20;92593.00;;;;7404375;19;20148;-72
2023/03/09 08:55:56;;;;;;;2.90;0.70;;;;;6.20;92608.00;;;;7403247;19;20121;-73
2023/03/09 08:58:30;;;;;;;4.50;1.03;;;;;6.30;92603.00;;;;7404765;19;20139;-73
2023/03/09 09:01:08;;;;;;;5.87;1.23;;;;;6.50;92592.00;;;;7400764;19;20600;-71
2023/03/09 09:03:38;;;;;;;2.53;0.93;;;;;7.10;92595.00;;;;7401184;19;20157;-71
2023/03/09 09:06:14;;;;;;;4.87;1.37;;;;;7.60;92596.00;;;;7402777;19;20164;-74
2023/03/09 09:08:48;;;;;;;2.33;1.00;;;;;7.40;92605.00;;;;7401130;19;20123;-74
2023/03/09 09:11:22;;;;;;;5.30;1.10;;;;;7.40;92613.00;;;;7405796;19;20615;-74
2023/03/09 09:13:56;;;;;;;1.70;0.90;;;;;7.40;92601.00;;;;7403614;19;20156;-76
2023/03/09 09:16:23;;;;;;;3.67;1.10;;;;;7.30;92606.00;;;;7404486;19;20166;-75
2023/03/09 09:18:57;;;;;;;3.07;1.13;;;;;7.30;92612.00;;;;7399485;19;20125;-83
2023/03/09 09:21:24;;;;;;;1.77;1.00;;;;;7.40;92606.00;;;;7400979;19;20133;-75
2023/03/09 09:23:58;;;;;;;4.23;1.70;;;;;7.90;92599.00;;;;7399106;19;20158;-75
2023/03/09 09:26:32;;;;;;;4.20;1.20;;;;;7.90;92615.00;;;;7400380;19;20125;-76
2023/03/09 09:29:06;;;;;;;5.93;1.30;;;;;7.60;92613.00;;;;7398630;19;20150;-77
2023/03/09 09:31:34;;;;;;;7.07;1.40;;;;;7.60;92607.00;;;;7400388;19;20244;-75
2023/03/09 09:34:07;;;;;;;5.30;1.20;;;;;7.40;92624.00;;;;7400300;19;20128;-74
2023/03/09 09:36:35;;;;;;;6.87;1.10;;;;;7.20;92628.00;;;;7403062;19;20123;-74
2023/03/09 09:39:12;;;;;;;6.50;1.87;;;;;7.40;92615.00;;;;7401751;19;20540;-75
2023/03/09 09:41:52;;;;;;;6.70;2.00;;;;;7.50;92612.00;;;;7399450;19;20156;-76
2023/03/09 09:44:40;;;;;;;4.70;1.20;;;;;7.70;92615.00;;;;7399715;19;20497;-76
2023/03/09 09:47:22;;;;;;;4.70;1.40;;;;;8.00;92617.00;;;;7398311;19;20156;-74
2023/03/09 09:49:52;;;;;;;5.30;1.30;;;;;7.60;92624.00;;;;7396892;19;20157;-75
2023/03/09 09:52:52;;;;;;;2.60;1.10;;;;;7.50;92630.00;;;;7400665;19;20156;-76
2023/03/09 09:55:32;;;;;;;4.10;1.30;;;;;7.40;92648.00;;;;7402712;19;20129;-74
2023/03/09 09:58:54;;;;;;;10.30;1.80;;;;;7.40;92664.00;;;;7403000;19;20125;-75
2023/03/09 10:01:35;;;;;;;1.80;1.00;;;;;7.20;92663.00;;;;7394206;19;20176;-76
2023/03/09 10:04:14;;;;;;;2.87;1.03;;;;;7.10;92668.00;;;;7398794;19;20148;-75
2023/03/09 10:07:00;;;;;;;5.13;1.10;;;;;7.30;92668.00;;;;7387574;19;20179;-75
2023/03/09 10:09:45;;;;;;;4.40;1.13;;;;;7.30;92668.00;;;;7393846;19;20193;-78
2023/03/09 10:12:20;;;;;;;3.13;1.63;;;;;7.30;92665.00;;;;7396248;19;20487;-74
2023/03/09 10:15:05;;;;;;;3.80;1.10;;;;;7.40;92671.00;;;;7398200;19;20173;-81
2023/03/09 10:18:03;;;;;;;2.87;1.00;;;;;7.20;92675.00;;;;7397095;19;20153;-79
2023/03/09 10:20:53;;;;;;;4.77;1.00;;;;;7.40;92659.00;;;;7399096;19;20652;-76
2023/03/09 10:23:29;;;;;;;3.10;1.10;;;;;7.80;92659.00;;;;7395847;19;20171;-75
2023/03/09 10:26:20;;;;;;;4.90;1.23;;;;;8.00;92661.00;;;;7399288;19;20153;-75
2023/03/09 10:29:00;;;;;;;5.10;1.17;;;;;8.20;92681.00;;;;7398491;19;20610;-74
2023/03/09 10:31:45;;;;;;;4.00;1.60;;;;;8.00;92684.00;;;;7398776;19;20128;-75
2023/03/09 10:34:24;;;;;;;2.83;0.90;;;;;8.00;92677.00;;;;7399270;19;20133;-75
2023/03/09 10:37:08;;;;;;;8.20;1.20;;;;;8.00;92688.00;;;;7399085;19;20768;-75
2023/03/09 10:39:44;;;;;;;5.43;1.20;;;;;7.80;92694.00;;;;7398491;19;20148;-76
2023/03/09 10:42:24;;;;;;;3.40;1.23;;;;;7.60;92694.00;;;;7399362;19;20117;-75
2023/03/09 10:45:10;;;;;;;5.23;1.33;;;;;7.50;92701.00;;;;7398330;19;20480;-73
2023/03/09 10:47:47;;;;;;;5.80;1.43;;;;;7.40;92702.00;;;;7398644;19;20459;-73
2023/03/09 10:50:29;;;;;;;4.80;1.30;;;;;7.50;92711.00;;;;7399448;19;20587;-74
2023/03/09 10:52:57;;;;;;;3.37;1.13;;;;;7.70;92693.00;;;;7399862;19;20439;-72
2023/03/09 10:55:36;;;;;;;2.70;1.50;;;;;8.20;92696.00;;;;7394444;19;20145;-73
2023/03/09 10:58:18;;;;;;;4.77;1.40;;;;;8.20;92705.00;;;;7396376;19;20595;-74
2023/03/09 11:01:04;;;;;;;5.53;1.50;;;;;7.90;92711.00;;;;7398937;19;20135;-73
2023/03/09 11:03:41;;;;;;;9.23;1.27;;;;;7.90;92702.00;;;;7392441;19;20800;-74
2023/03/09 11:06:30;;;;;;;6.83;1.30;;;;;7.60;92705.00;;;;7394088;19;20160;-73
2023/03/09 11:09:10;;;;;;;3.90;1.13;;;;;7.60;92697.00;;;;7390958;19;20156;-73
2023/03/09 11:11:46;;;;;;;3.90;1.30;;;;;8.00;92690.00;;;;7395513;19;20152;-74
2023/03/09 11:14:41;;;;;;;9.93;1.93;;;;;8.70;92671.00;;;;7399144;19;20139;-74
2023/03/09 11:17:36;;;;;;;5.20;1.30;;;;;8.50;92676.00;;;;7397849;19;20167;-74
2023/03/09 11:20:19;;;;;;;5.03;1.40;;;;;8.90;92684.00;;;;7398948;19;20603;-75
2023/03/09 11:23:01;;;;;;;5.50;1.23;;;;;8.80;92687.00;;;;7396585;19;20176;-74
2023/03/09 11:26:10;;;;;;;4.70;1.63;;;;;9.50;92691.00;;;;7398492;19;20129;-74
2023/03/09 11:29:15;;;;;;;3.85;1.02;;;;;9.10;92706.00;;;;7398968;19;20461;-74
2023/03/09 11:31:48;;;;;;;4.70;1.50;;;;;8.80;92704.00;;;;7398405;19;20145;-74
2023/03/09 11:34:32;;;;;;;2.42;1.10;;;;;8.70;92696.00;;;;7397856;19;20618;-75
2023/03/09 11:37:21;;;;;;;3.80;1.00;;;;;8.70;92692.00;;;;7399813;19;20177;-74
2023/03/09 11:40:00;;;;;;;2.53;1.10;;;;;8.60;92693.00;;;;7396598;19;20156;-74
2023/03/09 11:42:49;;;;;;;4.83;1.30;;;;;8.30;92709.00;;;;7397978;19;20490;-75
2023/03/09 11:45:25;;;;;;;3.90;0.97;;;;;8.30;92681.00;;;;7397085;19;20624;-75
2023/03/09 11:48:01;;;;;;;3.17;1.00;;;;;9.00;92684.00;;;;7394015;19;20519;-75
2023/03/09 11:51:04;;;;;;;2.87;1.13;;;;;9.30;92656.00;;;;7396548;19;20132;-74
2023/03/09 11:53:56;;;;;;;4.37;1.17;;;;;9.70;92653.00;;;;7396535;19;20149;-76
2023/03/09 11:56:38;;;;;;;2.72;0.82;;;;;10.40;92665.00;;;;7398151;19;20599;-74
2023/03/09 11:59:28;;;;;;;3.03;1.00;;;;;10.20;92639.00;;;;7396114;19;20478;-73
2023/03/09 12:02:21;;;;;;;2.38;0.88;;;;;11.30;92643.00;;;;7398671;19;20656;-76
2023/03/09 12:04:55;;;;;;;3.58;1.02;;;;;11.70;92633.00;;;;7401197;19;20464;-75
2023/03/09 12:07:37;;;;;;;1.75;0.95;;;;;12.00;92624.00;;;;7395813;19;20244;-74
2023/03/09 12:10:42;;;;;;;2.53;1.17;;;;;12.50;92639.00;;;;7398287;19;20132;-74
2023/03/09 12:13:25;;;;;;;4.53;1.33;;;;;11.50;92623.00;;;;7402828;19;20568;-74
2023/03/09 12:16:04;;;;;;;3.45;0.98;;;;;12.10;92617.00;;;;7402422;19;20698;-74
2023/03/09 12:18:41;;;;;;;2.70;1.02;;;;;11.40;92618.00;;;;7395090;19;20454;-75
2023/03/09 12:21:26;;;;;;;6.45;1.30;;;;;12.70;92627.00;;;;7397627;19;20534;-77
2023/03/09 12:23:54;;;;;;;5.32;1.15;;;;;11.90;92620.00;;;;7390703;19;20184;-75
2023/03/09 12:26:30;;;;;;;4.05;1.30;;;;;11.80;92612.00;;;;7404203;19;20155;-76
2023/03/09 12:29:13;;;;;;;3.25;1.20;;;;;12.80;92608.00;;;;7400502;19;20149;-78
2023/03/09 12:32:28;;;;;;;3.55;0.90;;;;;13.40;92606.00;;;;7403037;19;20153;-74
2023/03/09 12:35:03;;;;;;;3.80;1.33;;;;;14.00;92616.00;;;;7402217;19;20136;-77
2023/03/09 12:37:51;;;;;;;3.47;1.10;;;;;12.00;92599.00;;;;7400780;19;20197;-78
2023/03/09 12:40:29;;;;;;;2.55;1.10;;;;;13.10;92603.00;;;;7402158;19;20141;-78
2023/03/09 12:43:14;;;;;;;5.50;1.17;;;;;12.80;92597.00;;;;7401244;19;20522;-78
2023/03/09 12:45:50;;;;;;;3.65;1.13;;;;;12.90;92615.00;;;;7403470;19;20141;-77
2023/03/09 12:48:29;;;;;;;6.95;1.35;;;;;12.10;92607.00;;;;7403567;19;20572;-75
2023/03/09 12:51:18;;;;;;;1.65;0.93;;;;;12.40;92598.00;;;;7400609;19;20140;-78
2023/03/09 12:54:01;;;;;;;4.97;1.30;;;;;12.30;92632.00;;;;7402903;19;20148;-79
2023/03/09 12:56:37;;;;;;;3.75;1.55;;;;;12.10;92634.00;;;;7403850;19;20133;-79
2023/03/09 12:59:09;;;;;;;4.32;1.30;;;;;11.10;92641.00;;;;7402872;19;20139;-79
2023/03/09 13:01:43;;;;;;;6.00;1.73;;;;;10.90;92630.00;;;;7399789;19;20128;-79
2023/03/09 13:04:20;;;;;;;3.70;1.40;;;;;10.90;92640.00;;;;7402903;19;20153;-77
2023/03/09 13:07:07;;;;;;;3.55;1.25;;;;;10.30;92646.00;;;;7399668;19;20391;-76
2023/03/09 13:09:44;;;;;;;7.60;1.40;;;;;10.40;92639.00;;;;7395804;19;20156;-75